createdAt,value
2022-10-17T00:02:06.160Z,101626.63
2022-10-17T00:07:03.798Z,101617.94
2022-10-17T00:09:30.091Z,101614.78
2022-10-17T00:11:56.515Z,101620.13
2022-10-17T00:14:22.821Z,101615.41
2022-10-17T00:16:49.119Z,101617.03
2022-10-17T00:19:15.455Z,101621.94
2022-10-17T00:21:41.782Z,101616.91
2022-10-17T00:24:08.293Z,101610.34
2022-10-17T00:26:34.677Z,101605.31
2022-10-17T00:29:01.028Z,101611.28
2022-10-17T00:31:27.390Z,101618.34
2022-10-17T00:33:54.012Z,101628.84
2022-10-17T00:36:23.337Z,101622.44
2022-10-17T00:38:55.448Z,101621.06
2022-10-17T00:41:25.008Z,101606.94
2022-10-17T00:43:54.309Z,101611.50
2022-10-17T00:46:22.556Z,101621.34
2022-10-17T00:48:50.911Z,101622.41
2022-10-17T00:51:19.858Z,101612.81
2022-10-17T00:53:46.882Z,101618.22
2022-10-17T00:56:13.658Z,101628.59
2022-10-17T00:58:40.057Z,101623.66
2022-10-17T01:01:06.519Z,101628.31
2022-10-17T01:03:32.992Z,101627.50
2022-10-17T01:05:59.705Z,101630.84
2022-10-17T01:08:26.069Z,101629.81
2022-10-17T01:11:07.476Z,101622.47
2022-10-17T01:13:44.692Z,101613.19
2022-10-17T01:16:21.021Z,101603.91
2022-10-17T01:18:50.080Z,101597.94
2022-10-17T01:21:44.320Z,101596.81
2022-10-17T01:24:36.953Z,101593.72
2022-10-17T01:27:15.606Z,101594.63
2022-10-17T01:29:55.974Z,101587.31
2022-10-17T01:32:25.479Z,101585.69
2022-10-17T01:35:05.222Z,101572.75
2022-10-17T01:37:45.003Z,101583.97
2022-10-17T01:40:28.529Z,101576.88
2022-10-17T01:43:05.022Z,101571.47
2022-10-17T01:46:00.618Z,101572.38
2022-10-17T01:48:34.877Z,101561.63
2022-10-17T01:51:21.146Z,101560.03
2022-10-17T01:53:57.019Z,101553.72
2022-10-17T01:56:26.299Z,101552.53
2022-10-17T01:59:09.035Z,101553.28
2022-10-17T02:01:38.014Z,101543.88
2022-10-17T02:04:07.928Z,101537.78
2022-10-17T02:06:36.150Z,101531.94
2022-10-17T02:09:17.014Z,101537.38
2022-10-17T02:11:50.434Z,101533.81
2022-10-17T02:14:33.214Z,101531.63
2022-10-17T02:17:05.846Z,101538.75
2022-10-17T02:19:54.985Z,101527.53
2022-10-17T02:22:43.865Z,101529.59
2022-10-17T02:25:25.346Z,101533.47
2022-10-17T02:28:03.377Z,101532.91
2022-10-17T02:30:59.678Z,101531.19
2022-10-17T02:33:35.301Z,101534.34
2022-10-17T02:36:08.783Z,101532.63
2022-10-17T02:38:35.591Z,101528.03
2022-10-17T02:41:03.572Z,101529.19
2022-10-17T02:43:30.210Z,101530.78
2022-10-17T02:45:56.985Z,101531.19
2022-10-17T02:48:59.478Z,101532.84
2022-10-17T02:51:36.901Z,101534.69
2022-10-17T02:54:24.444Z,101534.34
2022-10-17T02:56:55.285Z,101540.53
2022-10-17T02:59:24.828Z,101539.16
2022-10-17T03:01:51.935Z,101542.94
2022-10-17T03:04:19.738Z,101540.44
2022-10-17T03:06:48.675Z,101530.16
2022-10-17T03:09:15.449Z,101530.28
2022-10-17T03:11:41.892Z,101532.22
2022-10-17T03:14:08.311Z,101532.00
2022-10-17T03:16:34.625Z,101535.19
2022-10-17T03:19:00.954Z,101528.09
2022-10-17T03:21:27.316Z,101530.84
2022-10-17T03:23:53.648Z,101518.63
2022-10-17T03:26:20.026Z,101518.28
2022-10-17T03:28:48.549Z,101518.91
2022-10-17T03:31:17.868Z,101519.81
2022-10-17T03:33:44.190Z,101508.03
2022-10-17T03:36:13.753Z,101500.13
2022-10-17T03:38:40.619Z,101500.91
2022-10-17T03:41:07.271Z,101505.72
2022-10-17T03:43:33.792Z,101505.38
2022-10-17T03:46:01.025Z,101507.69
2022-10-17T03:48:29.090Z,101499.84
2022-10-17T03:51:05.397Z,101496.78
2022-10-17T03:53:32.299Z,101494.38
2022-10-17T03:56:10.560Z,101483.84
2022-10-17T03:58:36.966Z,101490.72
2022-10-17T04:01:05.475Z,101494.28
2022-10-17T04:03:32.086Z,101498.16
2022-10-17T04:06:00.261Z,101500.44
2022-10-17T04:08:27.632Z,101498.84
2022-10-17T04:10:59.210Z,101499.66
2022-10-17T04:13:25.871Z,101506.41
2022-10-17T04:16:00.701Z,101505.28
2022-10-17T04:18:27.411Z,101504.19
2022-10-17T04:20:54.363Z,101514.75
2022-10-17T04:23:21.002Z,101516.34
2022-10-17T04:25:47.322Z,101509.47
2022-10-17T04:28:13.653Z,101514.28
2022-10-17T04:30:42.324Z,101519.31
2022-10-17T04:33:11.472Z,101518.50
2022-10-17T04:35:37.839Z,101525.13
2022-10-17T04:38:04.218Z,101519.84
2022-10-17T04:40:30.556Z,101519.16
2022-10-17T04:42:57.144Z,101519.66
2022-10-17T04:45:23.490Z,101512.50
2022-10-17T04:47:49.782Z,101510.66
2022-10-17T04:50:16.175Z,101505.16
2022-10-17T04:52:42.504Z,101501.72
2022-10-17T04:55:09.223Z,101489.25
2022-10-17T04:57:35.846Z,101492.00
2022-10-17T05:00:02.423Z,101489.16
2022-10-17T05:02:28.993Z,101488.56
2022-10-17T05:04:55.515Z,101482.88
2022-10-17T05:07:21.920Z,101485.06
2022-10-17T05:09:48.240Z,101481.75
2022-10-17T05:12:14.565Z,101481.19
2022-10-17T05:14:40.881Z,101483.03
2022-10-17T05:17:07.413Z,101486.38
2022-10-17T05:19:33.707Z,101482.38
2022-10-17T05:22:00.045Z,101479.28
2022-10-17T05:24:26.343Z,101472.06
2022-10-17T05:26:52.693Z,101475.97
2022-10-17T05:29:19.122Z,101472.06
2022-10-17T05:31:45.437Z,101477.13
2022-10-17T05:34:13.907Z,101484.44
2022-10-17T05:36:40.583Z,101479.13
2022-10-17T05:39:06.895Z,101472.75
2022-10-17T05:41:33.187Z,101472.31
2022-10-17T05:44:03.066Z,101475.59
2022-10-17T05:46:31.825Z,101469.72
2022-10-17T05:48:58.282Z,101473.84
2022-10-17T05:51:24.643Z,101484.03
2022-10-17T05:53:51.011Z,101486.69
2022-10-17T05:56:17.375Z,101484.16
2022-10-17T05:58:50.455Z,101491.34
2022-10-17T06:01:18.771Z,101497.09
2022-10-17T06:03:45.119Z,101499.16
2022-10-17T06:06:13.075Z,101491.13
2022-10-17T06:08:39.693Z,101490.25
2022-10-17T06:11:09.248Z,101498.53
2022-10-17T06:13:36.711Z,101500.88
2022-10-17T06:16:03.106Z,101506.75
2022-10-17T06:18:29.473Z,101503.06
2022-10-17T06:21:02.477Z,101509.03
2022-10-17T06:23:28.878Z,101510.31
2022-10-17T06:25:59.079Z,101511.19
2022-10-17T06:28:25.427Z,101508.78
2022-10-17T06:30:51.860Z,101509.47
2022-10-17T06:33:18.225Z,101516.16
2022-10-17T06:35:50.426Z,101513.00
2022-10-17T06:38:16.757Z,101518.69
2022-10-17T06:40:43.049Z,101520.75
2022-10-17T06:43:09.357Z,101522.25
2022-10-17T06:45:38.987Z,101511.94
2022-10-17T06:48:05.939Z,101519.16
2022-10-17T06:50:32.229Z,101513.41
2022-10-17T06:52:58.556Z,101508.59
2022-10-17T06:55:24.882Z,101516.13
2022-10-17T06:57:52.263Z,101528.66
2022-10-17T07:00:18.679Z,101530.59
2022-10-17T07:02:45.026Z,101529.03
2022-10-17T07:05:11.649Z,101522.97
2022-10-17T07:07:40.200Z,101533.31
2022-10-17T07:10:09.623Z,101537.44
2022-10-17T07:12:36.175Z,101537.34
2022-10-17T07:15:06.619Z,101536.44
2022-10-17T07:17:32.976Z,101548.38
2022-10-17T07:19:59.339Z,101545.81
2022-10-17T07:22:25.742Z,101538.50
2022-10-17T07:24:52.078Z,101545.84
2022-10-17T07:27:18.586Z,101548.25
2022-10-17T07:29:44.958Z,101545.50
2022-10-17T07:32:11.276Z,101540.19
2022-10-17T07:34:37.638Z,101541.94
2022-10-17T07:37:04.312Z,101553.25
2022-10-17T07:39:30.632Z,101551.88
2022-10-17T07:41:57.140Z,101542.56
2022-10-17T07:44:23.480Z,101551.63
2022-10-17T07:46:49.827Z,101548.16
2022-10-17T07:49:16.159Z,101542.34
2022-10-17T07:51:42.629Z,101551.25
2022-10-17T07:54:09.161Z,101539.13
2022-10-17T07:56:36.021Z,101547.91
2022-10-17T07:59:05.169Z,101552.34
2022-10-17T08:01:34.737Z,101548.72
2022-10-17T08:04:01.193Z,101547.88
2022-10-17T08:06:27.547Z,101545.41
2022-10-17T08:08:53.849Z,101550.22
2022-10-17T08:11:21.216Z,101550.31
2022-10-17T08:13:47.588Z,101545.38
2022-10-17T08:16:13.976Z,101545.09
2022-10-17T08:18:41.629Z,101548.50
2022-10-17T08:21:08.552Z,101536.78
2022-10-17T08:23:36.306Z,101543.63
2022-10-17T08:26:05.192Z,101538.56
2022-10-17T08:28:34.477Z,101542.50
2022-10-17T08:31:09.970Z,101540.28
2022-10-17T08:33:36.969Z,101533.63
2022-10-17T08:36:05.366Z,101541.22
2022-10-17T08:38:35.453Z,101544.59
2022-10-17T08:41:15.549Z,101542.72
2022-10-17T08:44:00.652Z,101544.25
2022-10-17T08:46:34.308Z,101532.41
2022-10-17T08:49:05.677Z,101544.41
2022-10-17T08:51:37.040Z,101545.66
2022-10-17T08:54:40.433Z,101545.13
2022-10-17T08:57:12.891Z,101540.38
2022-10-17T08:59:39.429Z,101539.44
2022-10-17T09:02:31.833Z,101541.13
2022-10-17T09:05:29.034Z,101536.53
2022-10-17T09:08:05.975Z,101539.28
2022-10-17T09:10:58.560Z,101540.03
2022-10-17T09:13:49.376Z,101533.41
2022-10-17T09:16:25.722Z,101532.34
2022-10-17T09:19:15.718Z,101530.81
2022-10-17T09:21:48.496Z,101521.56
2022-10-17T09:24:28.017Z,101522.50
2022-10-17T09:26:55.464Z,101522.66
2022-10-17T09:29:24.829Z,101530.06
2022-10-17T09:32:19.192Z,101536.84
2022-10-17T09:34:45.595Z,101527.22
2022-10-17T09:37:16.823Z,101531.97
2022-10-17T09:39:44.600Z,101536.03
2022-10-17T09:42:18.646Z,101544.84
2022-10-17T09:44:51.437Z,101527.88
2022-10-17T09:47:25.554Z,101532.97
2022-10-17T09:49:52.396Z,101535.63
2022-10-17T09:52:24.853Z,101522.66
2022-10-17T09:55:20.167Z,101530.66
2022-10-17T09:58:04.888Z,101526.63
2022-10-17T10:00:43.662Z,101530.13
2022-10-17T10:03:12.698Z,101522.34
2022-10-17T10:05:40.637Z,101520.28
2022-10-17T10:08:18.907Z,101523.13
2022-10-17T10:10:45.591Z,101523.66
2022-10-17T10:13:14.742Z,101525.69
2022-10-17T10:15:42.653Z,101523.31
2022-10-17T10:18:36.073Z,101528.06
2022-10-17T10:21:08.688Z,101527.56
2022-10-17T10:23:40.012Z,101523.53
2022-10-17T10:26:18.912Z,101533.22
2022-10-17T10:28:58.643Z,101527.25
2022-10-17T10:31:31.494Z,101529.22
2022-10-17T10:34:01.142Z,101524.91
2022-10-17T10:36:43.866Z,101522.53
2022-10-17T10:39:32.520Z,101518.16
2022-10-17T10:42:01.128Z,101526.53
2022-10-17T10:44:31.911Z,101524.69
2022-10-17T10:47:19.893Z,101528.13
2022-10-17T10:49:46.312Z,101530.25
2022-10-17T10:52:35.490Z,101533.31
2022-10-17T10:55:17.498Z,101527.28
2022-10-17T10:57:46.984Z,101525.75
2022-10-17T11:00:19.743Z,101524.34
2022-10-17T11:03:17.835Z,101518.66
2022-10-17T11:05:53.256Z,101514.19
2022-10-17T11:09:13.945Z,101513.59
2022-10-17T11:11:56.097Z,101514.47
2022-10-17T11:14:45.019Z,101518.69
2022-10-17T11:17:32.811Z,101515.47
2022-10-17T11:20:10.873Z,101524.63
2022-10-17T11:22:47.545Z,101514.72
2022-10-17T11:25:29.755Z,101519.38
2022-10-17T11:27:58.696Z,101515.53
2022-10-17T11:30:36.444Z,101520.03
2022-10-17T11:33:04.986Z,101511.72
2022-10-17T11:35:40.333Z,101516.94
2022-10-17T11:38:18.357Z,101515.38
2022-10-17T11:40:50.071Z,101516.00
2022-10-17T11:43:16.397Z,101517.94
2022-10-17T11:45:47.149Z,101520.63
2022-10-17T11:48:22.771Z,101530.78
2022-10-17T11:54:04.577Z,101514.38
2022-10-17T11:56:48.669Z,101510.59
2022-10-17T11:59:42.683Z,101511.34
2022-10-17T12:02:23.564Z,101508.38
2022-10-17T12:05:12.181Z,101508.63
2022-10-17T12:07:55.032Z,101510.91
2022-10-17T12:10:44.109Z,101501.84
2022-10-17T12:13:28.654Z,101505.31
2022-10-17T12:15:56.245Z,101502.28
2022-10-17T12:18:27.312Z,101501.09
2022-10-17T12:21:00.890Z,101504.66
2022-10-17T12:23:31.991Z,101498.28
2022-10-17T12:26:03.272Z,101504.34
2022-10-17T12:28:39.971Z,101499.44
2022-10-17T12:31:23.094Z,101495.72
2022-10-17T12:33:51.760Z,101499.50
2022-10-17T12:36:26.957Z,101493.59
2022-10-17T12:39:02.395Z,101486.69
2022-10-17T12:41:37.898Z,101484.91
2022-10-17T12:44:13.321Z,101482.44
2022-10-17T12:46:59.666Z,101481.81
2022-10-17T12:49:45.880Z,101487.06
2022-10-17T12:52:35.146Z,101495.13
2022-10-17T12:55:13.422Z,101491.53
2022-10-17T12:57:46.927Z,101489.28
2022-10-17T13:00:18.354Z,101495.00
2022-10-17T13:02:45.755Z,101488.31
2022-10-17T13:05:28.413Z,101483.91
2022-10-17T13:07:56.612Z,101480.81
2022-10-17T13:13:06.783Z,101471.91
2022-10-17T13:15:34.928Z,101461.22
2022-10-17T13:18:01.798Z,101458.41
2022-10-17T13:20:31.576Z,101458.38
2022-10-17T13:22:59.537Z,101462.56
2022-10-17T13:25:27.422Z,101463.72
2022-10-17T13:28:06.359Z,101475.25
2022-10-17T13:30:35.746Z,101471.88
2022-10-17T13:33:03.415Z,101473.81
2022-10-17T13:38:29.514Z,101471.78
2022-10-17T13:41:01.996Z,101470.31
2022-10-17T13:43:42.703Z,101475.75
2022-10-17T13:46:37.808Z,101467.47
2022-10-17T13:49:18.637Z,101481.69
2022-10-17T13:51:47.876Z,101480.88
2022-10-17T13:54:39.944Z,101475.06
2022-10-17T13:57:16.587Z,101481.06
2022-10-17T13:59:47.622Z,101483.47
2022-10-17T14:02:16.850Z,101481.75
2022-10-17T14:05:16.150Z,101480.97
2022-10-17T14:07:58.024Z,101504.63
2022-10-17T14:10:38.730Z,101498.09
2022-10-17T14:13:08.202Z,101496.59
2022-10-17T14:15:36.328Z,101493.31
2022-10-17T14:18:08.357Z,101491.28
2022-10-17T14:23:30.730Z,101498.44
2022-10-17T14:26:08.288Z,101517.28
2022-10-17T14:28:35.283Z,101514.88
2022-10-17T14:31:18.326Z,101527.91
2022-10-17T14:33:50.514Z,101530.84
2022-10-17T14:36:18.538Z,101538.44
2022-10-17T14:38:51.868Z,101532.16
2022-10-17T14:44:40.423Z,101545.06
2022-10-17T14:47:41.777Z,101548.75
2022-10-17T14:50:06.699Z,101546.31
2022-10-17T14:52:34.066Z,101540.31
2022-10-17T14:55:17.251Z,101558.28
2022-10-17T14:57:45.221Z,101555.91
2022-10-17T15:00:16.838Z,101563.06
2022-10-17T15:02:43.657Z,101566.75
2022-10-17T15:05:13.205Z,101570.25
2022-10-17T15:07:40.531Z,101569.53
2022-10-17T15:10:07.203Z,101565.44
2022-10-17T15:12:33.575Z,101572.84
2022-10-17T15:14:59.933Z,101570.97
2022-10-17T15:17:29.506Z,101576.72
2022-10-17T15:19:56.393Z,101576.19
2022-10-17T15:22:23.581Z,101574.50
2022-10-17T15:24:50.132Z,101582.38
2022-10-17T15:27:19.572Z,101583.56
2022-10-17T15:29:46.811Z,101586.09
2022-10-17T15:32:14.012Z,101594.78
2022-10-17T15:34:40.494Z,101595.75
2022-10-17T15:37:16.096Z,101595.31
2022-10-17T15:39:42.528Z,101587.00
2022-10-17T15:42:11.910Z,101599.66
2022-10-17T15:44:38.321Z,101596.75
2022-10-17T15:47:05.402Z,101590.63
2022-10-17T15:49:31.720Z,101587.41
2022-10-17T15:51:58.082Z,101589.66
2022-10-17T15:54:24.389Z,101595.50
2022-10-17T15:56:54.786Z,101593.03
2022-10-17T15:59:24.202Z,101594.47
2022-10-17T16:01:50.679Z,101598.00
2022-10-17T16:04:18.376Z,101589.13
2022-10-17T16:06:44.795Z,101595.69
2022-10-17T16:09:11.204Z,101586.06
2022-10-17T16:11:40.015Z,101583.97
2022-10-17T16:14:10.896Z,101590.09
2022-10-17T16:16:37.289Z,101577.09
2022-10-17T16:19:04.770Z,101569.03
2022-10-17T16:21:34.350Z,101570.16
2022-10-17T16:24:00.878Z,101567.31
2022-10-17T16:26:28.143Z,101566.41
2022-10-17T16:28:55.984Z,101573.34
2022-10-17T16:31:29.275Z,101575.38
2022-10-17T16:33:57.235Z,101577.53
2022-10-17T16:36:24.381Z,101571.56
2022-10-17T16:38:52.429Z,101569.97
2022-10-17T16:41:25.361Z,101575.28
2022-10-17T16:43:53.660Z,101583.31
2022-10-17T16:46:21.030Z,101576.94
2022-10-17T16:48:47.917Z,101581.72
2022-10-17T16:51:15.332Z,101572.97
2022-10-17T16:53:45.119Z,101569.47
2022-10-17T16:56:15.501Z,101574.63
2022-10-17T16:58:42.624Z,101573.41
2022-10-17T17:01:12.951Z,101576.19
2022-10-17T17:03:41.565Z,101588.47
2022-10-17T17:06:11.933Z,101575.38
2022-10-17T17:08:38.411Z,101572.97
2022-10-17T17:11:12.325Z,101570.97
2022-10-17T17:13:38.828Z,101573.66
2022-10-17T17:16:08.033Z,101575.22
2022-10-17T17:18:34.478Z,101571.56
2022-10-17T17:21:03.214Z,101579.75
2022-10-17T17:23:30.747Z,101590.75
2022-10-17T17:25:59.088Z,101593.00
2022-10-17T17:28:26.397Z,101593.69
2022-10-17T17:30:53.316Z,101599.13
2022-10-17T17:33:19.713Z,101589.44
2022-10-17T17:35:46.049Z,101589.81
2022-10-17T17:38:12.382Z,101591.16
2022-10-17T17:40:49.691Z,101599.50
2022-10-17T17:43:17.738Z,101599.28
2022-10-17T17:45:44.187Z,101597.56
2022-10-17T17:48:11.013Z,101599.84
2022-10-17T17:50:38.556Z,101602.88
2022-10-17T17:53:06.160Z,101599.38
2022-10-17T17:55:33.591Z,101605.94
2022-10-17T17:58:00.129Z,101606.41
2022-10-17T18:00:27.395Z,101614.47
2022-10-17T18:02:54.324Z,101621.78
2022-10-17T18:05:20.769Z,101633.72
2022-10-17T18:07:47.219Z,101632.28
2022-10-17T18:12:42.001Z,101633.44
2022-10-17T18:15:08.542Z,101636.78
2022-10-17T18:17:35.093Z,101638.59
2022-10-17T18:20:02.695Z,101647.09
2022-10-17T18:22:29.434Z,101643.72
2022-10-17T18:24:56.077Z,101651.22
2022-10-17T18:27:22.543Z,101652.25
2022-10-17T18:29:50.333Z,101654.47
2022-10-17T18:32:17.112Z,101662.53
2022-10-17T18:34:43.509Z,101652.25
2022-10-17T18:37:09.882Z,101659.28
2022-10-17T18:39:36.241Z,101659.63
2022-10-17T18:42:02.669Z,101667.25
2022-10-17T18:44:29.164Z,101672.06
2022-10-17T18:46:58.537Z,101672.91
2022-10-17T18:49:27.887Z,101673.78
2022-10-17T18:51:54.238Z,101682.19
2022-10-17T18:54:22.124Z,101678.63
2022-10-17T18:56:53.005Z,101697.06
2022-10-17T18:59:19.964Z,101696.81
2022-10-17T19:01:46.955Z,101704.31
2022-10-17T19:04:13.981Z,101689.81
2022-10-17T19:06:40.913Z,101694.34
2022-10-17T19:09:09.170Z,101694.94
2022-10-17T19:11:37.424Z,101696.84
2022-10-17T19:14:13.121Z,101712.03
2022-10-17T19:16:47.797Z,101696.97
2022-10-17T19:19:19.336Z,101702.88
2022-10-17T19:21:45.844Z,101708.22
2022-10-17T19:24:20.829Z,101713.88
2022-10-17T19:26:50.175Z,101713.38
2022-10-17T19:29:18.011Z,101716.47
2022-10-17T19:31:45.404Z,101721.44
2022-10-17T19:34:13.127Z,101715.78
2022-10-17T19:36:40.453Z,101717.72
2022-10-17T19:39:18.895Z,101718.69
2022-10-17T19:41:47.135Z,101714.66
2022-10-17T19:44:14.407Z,101714.66
2022-10-17T19:46:41.289Z,101718.59
2022-10-17T19:49:07.659Z,101730.53
2022-10-17T19:51:34.333Z,101727.66
2022-10-17T19:54:01.453Z,101730.06
2022-10-17T19:56:32.385Z,101727.97
2022-10-17T19:58:59.168Z,101734.41
2022-10-17T20:01:31.986Z,101729.56
2022-10-17T20:03:58.382Z,101720.09
2022-10-17T20:06:25.345Z,101737.13
2022-10-17T20:08:51.832Z,101734.38
2022-10-17T20:11:22.051Z,101724.78
2022-10-17T20:13:48.504Z,101731.91
2022-10-17T20:16:23.510Z,101739.13
2022-10-17T20:18:51.999Z,101738.94
2022-10-17T20:21:22.397Z,101745.28
2022-10-17T20:23:49.034Z,101742.91
2022-10-17T20:26:37.093Z,101749.13
2022-10-17T20:29:16.523Z,101755.13
2022-10-17T20:31:44.898Z,101755.94
2022-10-17T20:34:16.679Z,101759.09
2022-10-17T20:36:43.490Z,101758.09
2022-10-17T20:39:12.020Z,101762.81
2022-10-17T20:41:38.567Z,101771.78
2022-10-17T20:44:06.714Z,101774.88
2022-10-17T20:46:37.596Z,101777.66
2022-10-17T20:49:06.954Z,101785.56
2022-10-17T20:51:34.241Z,101779.31
2022-10-17T20:54:00.657Z,101780.47
2022-10-17T20:56:29.243Z,101785.59
2022-10-17T20:59:00.777Z,101789.16
2022-10-17T21:01:28.456Z,101797.84
2022-10-17T21:03:55.028Z,101800.38
2022-10-17T21:06:22.203Z,101800.78
2022-10-17T21:08:49.390Z,101801.53
2022-10-17T21:11:18.108Z,101811.63
2022-10-17T21:13:45.319Z,101804.00
2022-10-17T21:16:13.896Z,101809.97
2022-10-17T21:18:40.761Z,101807.75
2022-10-17T21:21:22.536Z,101817.31
2022-10-17T21:23:50.677Z,101809.31
2022-10-17T21:26:18.299Z,101816.44
2022-10-17T21:28:46.920Z,101814.63
2022-10-17T21:31:17.675Z,101817.50
2022-10-17T21:33:47.145Z,101813.66
2022-10-17T21:36:16.661Z,101817.13
2022-10-17T21:38:44.809Z,101814.78
2022-10-17T21:41:12.639Z,101806.06
2022-10-17T21:43:38.938Z,101808.41
2022-10-17T21:46:12.470Z,101806.84
2022-10-17T21:48:39.223Z,101809.25
2022-10-17T21:51:09.572Z,101820.75
2022-10-17T21:53:36.618Z,101819.16
2022-10-17T21:56:09.188Z,101817.56
2022-10-17T21:58:35.524Z,101800.53
2022-10-17T22:01:12.593Z,101804.63
2022-10-17T22:03:44.209Z,101797.69
2022-10-17T22:06:38.753Z,101809.06
2022-10-17T22:09:02.796Z,101802.59
2022-10-17T22:11:32.765Z,101807.28
2022-10-17T22:14:01.948Z,101799.34
2022-10-17T22:16:28.865Z,101801.88
2022-10-17T22:19:03.194Z,101799.78
2022-10-17T22:21:34.416Z,101792.16
2022-10-17T22:24:03.052Z,101788.13
2022-10-17T22:26:31.970Z,101788.00
2022-10-17T22:28:58.413Z,101786.91
2022-10-17T22:31:25.529Z,101793.00
2022-10-17T22:33:51.848Z,101790.59
2022-10-17T22:36:18.906Z,101794.47
2022-10-17T22:38:45.273Z,101791.03
2022-10-17T22:41:11.607Z,101781.13
2022-10-17T22:43:37.926Z,101787.69
2022-10-17T22:46:06.512Z,101791.41
2022-10-17T22:48:33.342Z,101793.13
2022-10-17T22:51:00.701Z,101802.44
2022-10-17T22:53:27.232Z,101796.66
2022-10-17T22:55:56.337Z,101799.81
2022-10-17T22:58:23.661Z,101793.13
2022-10-17T23:00:51.660Z,101791.50
2022-10-17T23:03:19.403Z,101792.56
2022-10-17T23:05:45.907Z,101788.50
2022-10-17T23:08:13.506Z,101787.78
2022-10-17T23:10:39.911Z,101787.59
2022-10-17T23:13:06.865Z,101789.63
2022-10-17T23:15:34.005Z,101795.16
2022-10-17T23:18:01.658Z,101786.72
2022-10-17T23:20:29.548Z,101792.56
2022-10-17T23:22:56.303Z,101807.59
2022-10-17T23:25:22.964Z,101804.31
2022-10-17T23:27:49.313Z,101817.44
2022-10-17T23:30:16.332Z,101816.25
2022-10-17T23:32:42.704Z,101817.06
2022-10-17T23:35:09.819Z,101810.56
2022-10-17T23:37:36.305Z,101799.09
2022-10-17T23:40:03.684Z,101803.72
2022-10-17T23:42:30.306Z,101806.59
2022-10-17T23:44:56.645Z,101799.78
2022-10-17T23:47:22.937Z,101816.84
2022-10-17T23:49:49.274Z,101813.25
2022-10-17T23:52:15.805Z,101814.56
2022-10-17T23:57:13.644Z,101812.50
2022-10-17T23:59:40.041Z,101810.66
